sensor_id;sensor_type;location;lat;lon;timestamp;temperature;humidity
240;DHT22;104;53.590;10.004;2022-12-18T00:01:47;-2.10;96.80
240;DHT22;104;53.590;10.004;2022-12-18T00:04:18;-2.10;96.80
240;DHT22;104;53.590;10.004;2022-12-18T00:06:46;-2.10;96.80
240;DHT22;104;53.590;10.004;2022-12-18T00:14:15;-2.20;96.80
240;DHT22;104;53.590;10.004;2022-12-18T00:16:44;-2.20;96.80
240;DHT22;104;53.590;10.004;2022-12-18T00:21:41;-2.20;96.80
240;DHT22;104;53.590;10.004;2022-12-18T00:24:08;-2.20;96.80
240;DHT22;104;53.590;10.004;2022-12-18T00:26:37;-2.20;96.80
240;DHT22;104;53.590;10.004;2022-12-18T00:29:07;-2.20;96.80
240;DHT22;104;53.590;10.004;2022-12-18T00:31:37;-2.40;96.80
240;DHT22;104;53.590;10.004;2022-12-18T00:41:29;-2.30;96.80
240;DHT22;104;53.590;10.004;2022-12-18T00:44:15;-2.30;96.80
240;DHT22;104;53.590;10.004;2022-12-18T00:46:47;-2.40;96.80
240;DHT22;104;53.590;10.004;2022-12-18T00:54:13;-2.20;96.80
240;DHT22;104;53.590;10.004;2022-12-18T00:56:41;-2.20;96.80
240;DHT22;104;53.590;10.004;2022-12-18T00:59:09;-2.20;96.80
240;DHT22;104;53.590;10.004;2022-12-18T01:09:02;-2.10;96.80
240;DHT22;104;53.590;10.004;2022-12-18T01:11:30;-2.00;96.80
240;DHT22;104;53.590;10.004;2022-12-18T01:13:57;-1.90;96.80
240;DHT22;104;53.590;10.004;2022-12-18T01:18:54;-2.00;96.80
240;DHT22;104;53.590;10.004;2022-12-18T01:21:23;-2.00;96.80
240;DHT22;104;53.590;10.004;2022-12-18T01:23:52;-2.00;96.80
240;DHT22;104;53.590;10.004;2022-12-18T01:26:19;-2.00;96.80
240;DHT22;104;53.590;10.004;2022-12-18T01:31:16;-2.00;96.80
240;DHT22;104;53.590;10.004;2022-12-18T01:38:43;-2.10;96.80
240;DHT22;104;53.590;10.004;2022-12-18T01:43:46;-2.10;96.80
240;DHT22;104;53.590;10.004;2022-12-18T01:48:42;-2.10;96.80
240;DHT22;104;53.590;10.004;2022-12-18T01:53:39;-2.10;96.80
240;DHT22;104;53.590;10.004;2022-12-18T01:56:12;-2.10;96.80
240;DHT22;104;53.590;10.004;2022-12-18T01:58:46;-2.10;96.80
240;DHT22;104;53.590;10.004;2022-12-18T02:01:15;-2.00;96.80
240;DHT22;104;53.590;10.004;2022-12-18T02:06:15;-2.00;96.80
240;DHT22;104;53.590;10.004;2022-12-18T02:08:57;-1.90;96.80
240;DHT22;104;53.590;10.004;2022-12-18T02:11:36;-1.90;96.80
240;DHT22;104;53.590;10.004;2022-12-18T02:14:14;-1.90;96.80
240;DHT22;104;53.590;10.004;2022-12-18T02:16:48;-2.00;96.80
240;DHT22;104;53.590;10.004;2022-12-18T02:22:26;-2.00;96.80
240;DHT22;104;53.590;10.004;2022-12-18T02:25:03;-2.00;96.80
240;DHT22;104;53.590;10.004;2022-12-18T02:27:35;-1.90;96.80
240;DHT22;104;53.590;10.004;2022-12-18T02:30:05;-1.90;96.80
240;DHT22;104;53.590;10.004;2022-12-18T02:32:35;-1.90;96.80
240;DHT22;104;53.590;10.004;2022-12-18T02:35:07;-1.90;96.80
240;DHT22;104;53.590;10.004;2022-12-18T02:37:35;-1.90;96.80
240;DHT22;104;53.590;10.004;2022-12-18T02:40:07;-1.80;96.80
240;DHT22;104;53.590;10.004;2022-12-18T02:42:36;-1.80;96.80
240;DHT22;104;53.590;10.004;2022-12-18T02:45:04;-1.90;96.80
240;DHT22;104;53.590;10.004;2022-12-18T02:47:34;-1.90;96.80
240;DHT22;104;53.590;10.004;2022-12-18T02:50:09;-1.80;96.80
240;DHT22;104;53.590;10.004;2022-12-18T02:52:46;-1.90;96.80
240;DHT22;104;53.590;10.004;2022-12-18T02:55:28;-1.80;96.80
240;DHT22;104;53.590;10.004;2022-12-18T02:58:00;-1.80;96.80
240;DHT22;104;53.590;10.004;2022-12-18T03:00:34;-1.80;96.80
240;DHT22;104;53.590;10.004;2022-12-18T03:03:06;-1.80;96.80
240;DHT22;104;53.590;10.004;2022-12-18T03:05:37;-1.80;96.80
240;DHT22;104;53.590;10.004;2022-12-18T03:08:07;-1.80;96.80
240;DHT22;104;53.590;10.004;2022-12-18T03:10:42;-1.80;96.80
240;DHT22;104;53.590;10.004;2022-12-18T03:13:15;-1.80;96.80
240;DHT22;104;53.590;10.004;2022-12-18T03:15:46;-1.80;96.80
240;DHT22;104;53.590;10.004;2022-12-18T03:18:17;-1.90;96.80
240;DHT22;104;53.590;10.004;2022-12-18T03:20:47;-2.00;96.80
240;DHT22;104;53.590;10.004;2022-12-18T03:23:24;-2.00;96.80
240;DHT22;104;53.590;10.004;2022-12-18T03:25:56;-2.00;96.80
240;DHT22;104;53.590;10.004;2022-12-18T03:28:28;-1.90;96.80
240;DHT22;104;53.590;10.004;2022-12-18T03:30:57;-1.90;96.80
240;DHT22;104;53.590;10.004;2022-12-18T03:33:28;-1.90;96.80
240;DHT22;104;53.590;10.004;2022-12-18T03:35:56;-1.90;96.80
240;DHT22;104;53.590;10.004;2022-12-18T03:38:23;-2.00;96.80
240;DHT22;104;53.590;10.004;2022-12-18T03:40:56;-2.00;96.80
240;DHT22;104;53.590;10.004;2022-12-18T03:43:35;-1.90;96.80
240;DHT22;104;53.590;10.004;2022-12-18T03:46:08;-1.90;96.80
240;DHT22;104;53.590;10.004;2022-12-18T03:48:41;-2.00;96.80
240;DHT22;104;53.590;10.004;2022-12-18T03:51:16;-2.00;96.80
240;DHT22;104;53.590;10.004;2022-12-18T03:53:49;-1.90;96.80
240;DHT22;104;53.590;10.004;2022-12-18T03:56:19;-2.00;96.80
240;DHT22;104;53.590;10.004;2022-12-18T04:03:46;-1.90;96.80
240;DHT22;104;53.590;10.004;2022-12-18T04:06:15;-1.90;96.80
240;DHT22;104;53.590;10.004;2022-12-18T04:08:46;-1.90;96.80
240;DHT22;104;53.590;10.004;2022-12-18T04:13:42;-1.90;96.80
240;DHT22;104;53.590;10.004;2022-12-18T04:16:11;-1.90;96.80
240;DHT22;104;53.590;10.004;2022-12-18T04:18:38;-1.90;96.80
240;DHT22;104;53.590;10.004;2022-12-18T04:21:05;-2.00;96.80
240;DHT22;104;53.590;10.004;2022-12-18T04:23:32;-2.00;96.80
240;DHT22;104;53.590;10.004;2022-12-18T04:25:59;-2.00;96.80
240;DHT22;104;53.590;10.004;2022-12-18T04:28:26;-2.00;96.80
240;DHT22;104;53.590;10.004;2022-12-18T04:30:53;-2.00;96.80
240;DHT22;104;53.590;10.004;2022-12-18T04:33:22;-2.00;96.80
240;DHT22;104;53.590;10.004;2022-12-18T04:35:49;-1.90;96.80
240;DHT22;104;53.590;10.004;2022-12-18T04:48:05;-2.00;96.80
240;DHT22;104;53.590;10.004;2022-12-18T04:50:34;-1.90;96.80
240;DHT22;104;53.590;10.004;2022-12-18T04:53:01;-1.90;96.80
240;DHT22;104;53.590;10.004;2022-12-18T04:55:28;-1.90;96.80
240;DHT22;104;53.590;10.004;2022-12-18T04:57:55;-2.00;96.80
240;DHT22;104;53.590;10.004;2022-12-18T05:00:22;-2.00;96.80
240;DHT22;104;53.590;10.004;2022-12-18T05:02:49;-2.00;96.80
240;DHT22;104;53.590;10.004;2022-12-18T05:05:16;-2.00;96.80
240;DHT22;104;53.590;10.004;2022-12-18T05:10:13;-2.10;96.80
240;DHT22;104;53.590;10.004;2022-12-18T05:12:40;-1.80;96.80
240;DHT22;104;53.590;10.004;2022-12-18T05:15:21;-1.80;96.80
240;DHT22;104;53.590;10.004;2022-12-18T05:17:48;-1.90;96.80
240;DHT22;104;53.590;10.004;2022-12-18T05:20:15;-1.90;96.80
240;DHT22;104;53.590;10.004;2022-12-18T05:30:08;-1.90;96.80
240;DHT22;104;53.590;10.004;2022-12-18T05:32:35;-1.90;96.80
240;DHT22;104;53.590;10.004;2022-12-18T05:35:02;-1.90;96.80
240;DHT22;104;53.590;10.004;2022-12-18T05:37:29;-2.00;96.80
240;DHT22;104;53.590;10.004;2022-12-18T05:42:25;-2.00;96.80
240;DHT22;104;53.590;10.004;2022-12-18T05:44:52;-2.00;96.80
240;DHT22;104;53.590;10.004;2022-12-18T05:47:19;-2.10;96.80
240;DHT22;104;53.590;10.004;2022-12-18T05:52:16;-2.20;96.80
240;DHT22;104;53.590;10.004;2022-12-18T05:57:12;-2.30;96.80
240;DHT22;104;53.590;10.004;2022-12-18T05:59:39;-2.30;96.80
240;DHT22;104;53.590;10.004;2022-12-18T06:04:33;-2.30;96.80
240;DHT22;104;53.590;10.004;2022-12-18T06:07:00;-2.40;96.80
240;DHT22;104;53.590;10.004;2022-12-18T06:09:29;-2.30;96.80
240;DHT22;104;53.590;10.004;2022-12-18T06:11:56;-2.20;96.80
240;DHT22;104;53.590;10.004;2022-12-18T06:14:24;-2.30;96.80
240;DHT22;104;53.590;10.004;2022-12-18T06:16:51;-2.30;96.80
240;DHT22;104;53.590;10.004;2022-12-18T06:21:45;-2.40;96.80
240;DHT22;104;53.590;10.004;2022-12-18T06:24:12;-2.40;96.80
240;DHT22;104;53.590;10.004;2022-12-18T06:26:40;-2.40;96.80
240;DHT22;104;53.590;10.004;2022-12-18T06:29:07;-2.40;96.80
240;DHT22;104;53.590;10.004;2022-12-18T06:31:35;-2.40;96.80
240;DHT22;104;53.590;10.004;2022-12-18T06:34:03;-2.40;96.80
240;DHT22;104;53.590;10.004;2022-12-18T06:36:31;-2.40;96.80
240;DHT22;104;53.590;10.004;2022-12-18T06:41:25;-2.30;96.80
240;DHT22;104;53.590;10.004;2022-12-18T06:43:52;-2.40;96.80
240;DHT22;104;53.590;10.004;2022-12-18T06:48:49;-2.50;96.80
240;DHT22;104;53.590;10.004;2022-12-18T06:53:44;-2.50;96.80
240;DHT22;104;53.590;10.004;2022-12-18T06:56:12;-2.50;96.80
240;DHT22;104;53.590;10.004;2022-12-18T06:58:40;-2.50;96.80
240;DHT22;104;53.590;10.004;2022-12-18T07:01:09;-2.50;96.80
240;DHT22;104;53.590;10.004;2022-12-18T07:03:37;-2.50;96.80
240;DHT22;104;53.590;10.004;2022-12-18T07:11:03;-2.50;96.80
240;DHT22;104;53.590;10.004;2022-12-18T07:13:31;-2.50;96.80
240;DHT22;104;53.590;10.004;2022-12-18T07:16:04;-2.40;96.80
240;DHT22;104;53.590;10.004;2022-12-18T07:23:32;-2.40;96.80
240;DHT22;104;53.590;10.004;2022-12-18T07:41:04;-2.10;96.80
240;DHT22;104;53.590;10.004;2022-12-18T07:43:32;-2.20;96.80
240;DHT22;104;53.590;10.004;2022-12-18T07:45:59;-2.20;96.80
240;DHT22;104;53.590;10.004;2022-12-18T07:48:27;-2.20;96.80
240;DHT22;104;53.590;10.004;2022-12-18T07:50:58;-2.20;96.80
240;DHT22;104;53.590;10.004;2022-12-18T09:20:03;-1.50;96.80
240;DHT22;104;53.590;10.004;2022-12-18T09:22:31;-1.50;96.80
240;DHT22;104;53.590;10.004;2022-12-18T09:37:17;-1.40;96.70
240;DHT22;104;53.590;10.004;2022-12-18T09:44:50;-1.20;95.80
240;DHT22;104;53.590;10.004;2022-12-18T09:47:19;-1.20;95.50
240;DHT22;104;53.590;10.004;2022-12-18T09:49:48;-1.20;95.40
240;DHT22;104;53.590;10.004;2022-12-18T09:52:21;-1.40;94.90
240;DHT22;104;53.590;10.004;2022-12-18T09:54:53;-1.50;95.10
240;DHT22;104;53.590;10.004;2022-12-18T09:59:53;-1.40;96.00
240;DHT22;104;53.590;10.004;2022-12-18T10:05:05;-1.40;96.30
240;DHT22;104;53.590;10.004;2022-12-18T10:12:43;-1.40;96.40
240;DHT22;104;53.590;10.004;2022-12-18T10:38:06;-0.80;93.40
240;DHT22;104;53.590;10.004;2022-12-18T10:43:16;-0.80;92.50
240;DHT22;104;53.590;10.004;2022-12-18T10:45:59;-0.70;92.80
240;DHT22;104;53.590;10.004;2022-12-18T10:48:27;-0.80;92.70
240;DHT22;104;53.590;10.004;2022-12-18T10:55:53;-0.90;92.30
240;DHT22;104;53.590;10.004;2022-12-18T11:03:34;-0.90;93.40
240;DHT22;104;53.590;10.004;2022-12-18T11:29:24;-0.80;91.90
240;DHT22;104;53.590;10.004;2022-12-18T11:34:44;-0.90;93.20
240;DHT22;104;53.590;10.004;2022-12-18T11:37:13;-0.80;93.70
240;DHT22;104;53.590;10.004;2022-12-18T11:39:49;-0.80;93.20
240;DHT22;104;53.590;10.004;2022-12-18T12:02:36;-0.50;91.80
240;DHT22;104;53.590;10.004;2022-12-18T12:05:20;-0.50;91.50
240;DHT22;104;53.590;10.004;2022-12-18T12:07:56;-0.40;91.20
240;DHT22;104;53.590;10.004;2022-12-18T12:10:34;-0.50;90.80
240;DHT22;104;53.590;10.004;2022-12-18T12:13:22;-0.40;91.10
240;DHT22;104;53.590;10.004;2022-12-18T12:18:35;-0.30;90.90
240;DHT22;104;53.590;10.004;2022-12-18T12:29:05;-0.20;91.10
240;DHT22;104;53.590;10.004;2022-12-18T12:34:17;-0.30;90.20
240;DHT22;104;53.590;10.004;2022-12-18T12:44:38;-0.50;90.30
240;DHT22;104;53.590;10.004;2022-12-18T12:54:43;-0.80;91.50
240;DHT22;104;53.590;10.004;2022-12-18T12:57:13;-0.90;91.60
240;DHT22;104;53.590;10.004;2022-12-18T12:59:47;-0.80;91.80
240;DHT22;104;53.590;10.004;2022-12-18T13:04:53;-0.70;91.90
240;DHT22;104;53.590;10.004;2022-12-18T13:07:27;-0.70;92.20
240;DHT22;104;53.590;10.004;2022-12-18T13:10:25;-0.50;92.10
240;DHT22;104;53.590;10.004;2022-12-18T13:15:25;-0.60;91.20
240;DHT22;104;53.590;10.004;2022-12-18T13:18:15;-0.70;91.90
240;DHT22;104;53.590;10.004;2022-12-18T13:20:46;-0.60;92.40
240;DHT22;104;53.590;10.004;2022-12-18T13:23:33;-0.50;91.50
240;DHT22;104;53.590;10.004;2022-12-18T13:26:32;-0.50;91.20
240;DHT22;104;53.590;10.004;2022-12-18T13:29:03;-0.40;91.30
240;DHT22;104;53.590;10.004;2022-12-18T13:32:01;-0.50;91.00
240;DHT22;104;53.590;10.004;2022-12-18T13:34:30;-0.50;91.30
240;DHT22;104;53.590;10.004;2022-12-18T13:37:38;-0.60;91.50
240;DHT22;104;53.590;10.004;2022-12-18T13:43:22;-0.70;91.90
240;DHT22;104;53.590;10.004;2022-12-18T13:45:59;-0.90;92.10
240;DHT22;104;53.590;10.004;2022-12-18T13:48:29;-0.80;92.70
240;DHT22;104;53.590;10.004;2022-12-18T13:51:02;-0.90;92.60
240;DHT22;104;53.590;10.004;2022-12-18T13:53:34;-0.90;92.60
240;DHT22;104;53.590;10.004;2022-12-18T13:56:03;-1.10;92.60
240;DHT22;104;53.590;10.004;2022-12-18T13:58:30;-1.20;92.80
240;DHT22;104;53.590;10.004;2022-12-18T14:00:58;-1.20;93.10
240;DHT22;104;53.590;10.004;2022-12-18T14:03:29;-1.40;93.30
240;DHT22;104;53.590;10.004;2022-12-18T14:06:01;-1.40;93.80
240;DHT22;104;53.590;10.004;2022-12-18T14:08:33;-1.50;94.10
240;DHT22;104;53.590;10.004;2022-12-18T14:11:03;-1.70;94.30
240;DHT22;104;53.590;10.004;2022-12-18T14:13:35;-1.90;94.50
240;DHT22;104;53.590;10.004;2022-12-18T14:16:04;-2.00;95.30
240;DHT22;104;53.590;10.004;2022-12-18T14:18:38;-2.00;96.00
240;DHT22;104;53.590;10.004;2022-12-18T14:21:20;-2.10;96.00
240;DHT22;104;53.590;10.004;2022-12-18T14:26:24;-2.10;96.40
240;DHT22;104;53.590;10.004;2022-12-18T14:31:23;-2.30;96.70
240;DHT22;104;53.590;10.004;2022-12-18T14:33:50;-2.40;96.80
240;DHT22;104;53.590;10.004;2022-12-18T14:36:21;-2.40;96.80
240;DHT22;104;53.590;10.004;2022-12-18T14:38:50;-2.40;96.80
240;DHT22;104;53.590;10.004;2022-12-18T14:41:20;-2.50;96.80
240;DHT22;104;53.590;10.004;2022-12-18T14:43:48;-2.50;96.80
240;DHT22;104;53.590;10.004;2022-12-18T14:46:28;-2.50;96.80
240;DHT22;104;53.590;10.004;2022-12-18T14:48:56;-2.50;96.80
240;DHT22;104;53.590;10.004;2022-12-18T14:51:25;-2.50;96.80
240;DHT22;104;53.590;10.004;2022-12-18T14:53:55;-2.60;96.80
240;DHT22;104;53.590;10.004;2022-12-18T14:56:24;-2.70;96.80
240;DHT22;104;53.590;10.004;2022-12-18T14:58:53;-2.70;96.80
240;DHT22;104;53.590;10.004;2022-12-18T15:03:50;-2.80;96.80
240;DHT22;104;53.590;10.004;2022-12-18T15:06:27;-2.90;96.80
240;DHT22;104;53.590;10.004;2022-12-18T15:08:56;-2.90;96.80
240;DHT22;104;53.590;10.004;2022-12-18T15:11:27;-3.00;96.80
240;DHT22;104;53.590;10.004;2022-12-18T15:18:49;-2.90;96.80
240;DHT22;104;53.590;10.004;2022-12-18T15:21:18;-2.90;96.80
240;DHT22;104;53.590;10.004;2022-12-18T15:23:49;-3.00;96.80
240;DHT22;104;53.590;10.004;2022-12-18T15:26:18;-3.00;96.80
240;DHT22;104;53.590;10.004;2022-12-18T15:28:46;-3.00;96.80
240;DHT22;104;53.590;10.004;2022-12-18T15:31:33;-3.00;96.80
240;DHT22;104;53.590;10.004;2022-12-18T15:34:18;-3.00;96.80
240;DHT22;104;53.590;10.004;2022-12-18T15:39:14;-3.00;96.80
240;DHT22;104;53.590;10.004;2022-12-18T15:41:42;-2.90;96.80
240;DHT22;104;53.590;10.004;2022-12-18T15:49:22;-3.20;96.80
240;DHT22;104;53.590;10.004;2022-12-18T15:51:51;-3.30;96.80
240;DHT22;104;53.590;10.004;2022-12-18T15:59:51;-3.30;96.80
240;DHT22;104;53.590;10.004;2022-12-18T16:31:59;-3.50;96.80
240;DHT22;104;53.590;10.004;2022-12-18T16:34:28;-3.40;96.80
240;DHT22;104;53.590;10.004;2022-12-18T16:36:56;-3.40;96.80
240;DHT22;104;53.590;10.004;2022-12-18T16:39:24;-3.40;96.80
240;DHT22;104;53.590;10.004;2022-12-18T16:44:20;-3.50;96.80
240;DHT22;104;53.590;10.004;2022-12-18T16:46:47;-3.50;96.80
240;DHT22;104;53.590;10.004;2022-12-18T16:51:42;-3.60;96.80
240;DHT22;104;53.590;10.004;2022-12-18T16:54:09;-3.50;96.80
240;DHT22;104;53.590;10.004;2022-12-18T16:59:04;-3.60;96.80
240;DHT22;104;53.590;10.004;2022-12-18T17:01:33;-3.60;96.80
240;DHT22;104;53.590;10.004;2022-12-18T17:06:30;-3.70;96.80
240;DHT22;104;53.590;10.004;2022-12-18T17:08:58;-3.80;96.80
240;DHT22;104;53.590;10.004;2022-12-18T17:11:26;-3.80;96.80
240;DHT22;104;53.590;10.004;2022-12-18T17:16:21;-3.80;96.80
240;DHT22;104;53.590;10.004;2022-12-18T17:18:51;-3.80;96.80
240;DHT22;104;53.590;10.004;2022-12-18T17:21:19;-3.80;96.80
240;DHT22;104;53.590;10.004;2022-12-18T17:31:12;-3.80;96.80
240;DHT22;104;53.590;10.004;2022-12-18T17:33:39;-3.80;96.80
240;DHT22;104;53.590;10.004;2022-12-18T17:36:08;-3.80;96.80
240;DHT22;104;53.590;10.004;2022-12-18T17:41:03;-3.90;96.80
240;DHT22;104;53.590;10.004;2022-12-18T17:48:30;-4.10;96.80
240;DHT22;104;53.590;10.004;2022-12-18T17:53:29;-4.10;96.80
240;DHT22;104;53.590;10.004;2022-12-18T18:13:17;-4.10;96.80
240;DHT22;104;53.590;10.004;2022-12-18T18:16:02;-4.10;96.80
240;DHT22;104;53.590;10.004;2022-12-18T18:18:30;-4.00;96.80
240;DHT22;104;53.590;10.004;2022-12-18T18:53:02;-4.10;96.80
240;DHT22;104;53.590;10.004;2022-12-18T18:55:32;-4.20;96.80
240;DHT22;104;53.590;10.004;2022-12-18T18:57:59;-4.10;96.80
240;DHT22;104;53.590;10.004;2022-12-18T19:07:49;-4.00;96.80
240;DHT22;104;53.590;10.004;2022-12-18T19:10:16;-4.00;96.80
240;DHT22;104;53.590;10.004;2022-12-18T19:15:29;-4.10;96.80
240;DHT22;104;53.590;10.004;2022-12-18T19:17:56;-4.20;96.80
240;DHT22;104;53.590;10.004;2022-12-18T19:20:23;-4.20;96.80
240;DHT22;104;53.590;10.004;2022-12-18T19:22:50;-4.10;96.80
240;DHT22;104;53.590;10.004;2022-12-18T19:27:44;-3.80;96.80
240;DHT22;104;53.590;10.004;2022-12-18T19:30:12;-3.80;96.80
240;DHT22;104;53.590;10.004;2022-12-18T19:32:40;-3.70;96.80
240;DHT22;104;53.590;10.004;2022-12-18T19:35:08;-3.70;96.80
240;DHT22;104;53.590;10.004;2022-12-18T19:40:03;-3.60;96.80
240;DHT22;104;53.590;10.004;2022-12-18T19:44:57;-3.50;96.80
240;DHT22;104;53.590;10.004;2022-12-18T19:47:24;-3.50;96.80
240;DHT22;104;53.590;10.004;2022-12-18T19:49:53;-3.50;96.80
240;DHT22;104;53.590;10.004;2022-12-18T19:54:47;-3.50;96.80
240;DHT22;104;53.590;10.004;2022-12-18T19:57:14;-3.40;96.80
240;DHT22;104;53.590;10.004;2022-12-18T19:59:41;-3.40;96.80
240;DHT22;104;53.590;10.004;2022-12-18T20:02:11;-3.50;96.80
240;DHT22;104;53.590;10.004;2022-12-18T21:06:01;-3.10;96.80
240;DHT22;104;53.590;10.004;2022-12-18T21:10:57;-3.10;96.80
240;DHT22;104;53.590;10.004;2022-12-18T21:13:57;-3.10;96.80
240;DHT22;104;53.590;10.004;2022-12-18T21:16:25;-3.10;96.80
240;DHT22;104;53.590;10.004;2022-12-18T21:33:38;-3.10;96.80
240;DHT22;104;53.590;10.004;2022-12-18T21:36:06;-3.10;96.80
240;DHT22;104;53.590;10.004;2022-12-18T21:38:34;-3.00;96.80
240;DHT22;104;53.590;10.004;2022-12-18T21:43:32;-2.90;96.80
240;DHT22;104;53.590;10.004;2022-12-18T21:46:16;-2.90;96.80
240;DHT22;104;53.590;10.004;2022-12-18T21:48:45;-2.90;96.80
240;DHT22;104;53.590;10.004;2022-12-18T21:51:12;-2.80;96.80
240;DHT22;104;53.590;10.004;2022-12-18T21:53:39;-2.80;96.80
240;DHT22;104;53.590;10.004;2022-12-18T21:56:06;-2.80;96.80
240;DHT22;104;53.590;10.004;2022-12-18T22:06:00;-2.80;96.80
240;DHT22;104;53.590;10.004;2022-12-18T22:08:27;-2.80;96.80
240;DHT22;104;53.590;10.004;2022-12-18T22:15:48;-2.80;96.80
240;DHT22;104;53.590;10.004;2022-12-18T22:18:15;-2.80;96.80
240;DHT22;104;53.590;10.004;2022-12-18T22:23:11;-2.80;96.80
240;DHT22;104;53.590;10.004;2022-12-18T22:25:38;-2.80;96.80
240;DHT22;104;53.590;10.004;2022-12-18T22:28:05;-2.80;96.80
240;DHT22;104;53.590;10.004;2022-12-18T22:30:49;-2.70;96.80
240;DHT22;104;53.590;10.004;2022-12-18T22:33:16;-2.80;96.80
240;DHT22;104;53.590;10.004;2022-12-18T22:35:43;-2.70;96.80
240;DHT22;104;53.590;10.004;2022-12-18T22:38:12;-2.80;96.80
240;DHT22;104;53.590;10.004;2022-12-18T22:40:39;-2.70;96.80
240;DHT22;104;53.590;10.004;2022-12-18T22:43:06;-2.70;96.80
240;DHT22;104;53.590;10.004;2022-12-18T22:50:28;-2.70;96.80
240;DHT22;104;53.590;10.004;2022-12-18T22:55:23;-2.70;96.80
240;DHT22;104;53.590;10.004;2022-12-18T23:00:18;-2.70;96.80
240;DHT22;104;53.590;10.004;2022-12-18T23:02:45;-2.60;96.80
240;DHT22;104;53.590;10.004;2022-12-18T23:05:12;-2.60;96.80
240;DHT22;104;53.590;10.004;2022-12-18T23:07:39;-2.60;96.80
240;DHT22;104;53.590;10.004;2022-12-18T23:10:06;-2.60;96.80
240;DHT22;104;53.590;10.004;2022-12-18T23:15:02;-2.60;96.80
240;DHT22;104;53.590;10.004;2022-12-18T23:17:29;-2.60;96.80
240;DHT22;104;53.590;10.004;2022-12-18T23:29:48;-2.60;96.80
240;DHT22;104;53.590;10.004;2022-12-18T23:32:15;-2.60;96.80
240;DHT22;104;53.590;10.004;2022-12-18T23:37:09;-2.60;96.80
240;DHT22;104;53.590;10.004;2022-12-18T23:42:03;-2.60;96.80
240;DHT22;104;53.590;10.004;2022-12-18T23:44:30;-2.60;96.80
240;DHT22;104;53.590;10.004;2022-12-18T23:46:58;-2.50;96.80
240;DHT22;104;53.590;10.004;2022-12-18T23:49:25;-2.50;96.80
240;DHT22;104;53.590;10.004;2022-12-18T23:51:52;-2.50;96.80
240;DHT22;104;53.590;10.004;2022-12-18T23:54:20;-2.50;96.80
